sensor_id;sensor_type;location;lat;lon;timestamp;P1;durP1;ratioP1;P2;durP2;ratioP2
10142;SDS011;5112;54.088;13.446;2023-09-18T00:00:23;9.57;;;8.67;;
10142;SDS011;5112;54.088;13.446;2023-09-18T00:10:25;11.00;;;9.73;;
10142;SDS011;5112;54.088;13.446;2023-09-18T00:20:29;11.77;;;9.53;;
10142;SDS011;5112;54.088;13.446;2023-09-18T00:30:30;11.57;;;10.17;;
10142;SDS011;5112;54.088;13.446;2023-09-18T00:40:33;10.93;;;9.93;;
10142;SDS011;5112;54.088;13.446;2023-09-18T00:50:35;10.77;;;9.67;;
10142;SDS011;5112;54.088;13.446;2023-09-18T01:00:39;11.40;;;10.37;;
10142;SDS011;5112;54.088;13.446;2023-09-18T01:10:43;11.93;;;10.73;;
10142;SDS011;5112;54.088;13.446;2023-09-18T01:20:51;13.37;;;12.07;;
10142;SDS011;5112;54.088;13.446;2023-09-18T01:30:54;11.40;;;10.40;;
10142;SDS011;5112;54.088;13.446;2023-09-18T01:40:55;11.50;;;10.50;;
10142;SDS011;5112;54.088;13.446;2023-09-18T01:50:59;11.80;;;10.73;;
10142;SDS011;5112;54.088;13.446;2023-09-18T02:01:00;11.73;;;10.63;;
10142;SDS011;5112;54.088;13.446;2023-09-18T02:11:03;12.50;;;11.30;;
10142;SDS011;5112;54.088;13.446;2023-09-18T02:21:05;12.43;;;11.20;;
10142;SDS011;5112;54.088;13.446;2023-09-18T02:31:08;12.27;;;11.07;;
10142;SDS011;5112;54.088;13.446;2023-09-18T02:41:10;12.27;;;11.17;;
10142;SDS011;5112;54.088;13.446;2023-09-18T02:51:13;12.53;;;11.33;;
10142;SDS011;5112;54.088;13.446;2023-09-18T03:01:15;12.80;;;11.60;;
10142;SDS011;5112;54.088;13.446;2023-09-18T03:11:18;12.77;;;11.60;;
10142;SDS011;5112;54.088;13.446;2023-09-18T03:21:20;12.27;;;11.13;;
10142;SDS011;5112;54.088;13.446;2023-09-18T03:31:23;12.47;;;11.27;;
10142;SDS011;5112;54.088;13.446;2023-09-18T03:41:24;12.47;;;11.27;;
10142;SDS011;5112;54.088;13.446;2023-09-18T03:51:27;11.93;;;10.93;;
10142;SDS011;5112;54.088;13.446;2023-09-18T04:01:29;10.97;;;10.07;;
10142;SDS011;5112;54.088;13.446;2023-09-18T04:11:32;10.80;;;9.90;;
10142;SDS011;5112;54.088;13.446;2023-09-18T04:21:34;11.30;;;10.40;;
10142;SDS011;5112;54.088;13.446;2023-09-18T04:31:37;11.97;;;10.87;;
10142;SDS011;5112;54.088;13.446;2023-09-18T04:41:39;11.33;;;9.97;;
10142;SDS011;5112;54.088;13.446;2023-09-18T04:51:41;11.10;;;10.13;;
10142;SDS011;5112;54.088;13.446;2023-09-18T05:01:44;11.20;;;10.10;;
10142;SDS011;5112;54.088;13.446;2023-09-18T05:11:47;10.70;;;9.90;;
10142;SDS011;5112;54.088;13.446;2023-09-18T05:21:49;11.80;;;10.60;;
10142;SDS011;5112;54.088;13.446;2023-09-18T05:31:52;11.43;;;10.33;;
10142;SDS011;5112;54.088;13.446;2023-09-18T05:41:53;10.90;;;10.00;;
10142;SDS011;5112;54.088;13.446;2023-09-18T05:51:56;10.07;;;9.23;;
10142;SDS011;5112;54.088;13.446;2023-09-18T06:01:58;9.43;;;8.57;;
10142;SDS011;5112;54.088;13.446;2023-09-18T06:12:01;9.30;;;7.97;;
10142;SDS011;5112;54.088;13.446;2023-09-18T06:22:05;8.43;;;7.63;;
10142;SDS011;5112;54.088;13.446;2023-09-18T06:32:08;8.37;;;7.67;;
10142;SDS011;5112;54.088;13.446;2023-09-18T06:42:10;7.40;;;6.80;;
10142;SDS011;5112;54.088;13.446;2023-09-18T06:52:13;7.40;;;6.80;;
10142;SDS011;5112;54.088;13.446;2023-09-18T07:02:14;7.70;;;7.03;;
10142;SDS011;5112;54.088;13.446;2023-09-18T07:12:18;7.83;;;7.03;;
10142;SDS011;5112;54.088;13.446;2023-09-18T07:22:19;6.93;;;6.33;;
10142;SDS011;5112;54.088;13.446;2023-09-18T07:32:22;7.00;;;6.40;;
10142;SDS011;5112;54.088;13.446;2023-09-18T07:42:26;6.30;;;5.60;;
10142;SDS011;5112;54.088;13.446;2023-09-18T07:52:29;6.17;;;5.67;;
10142;SDS011;5112;54.088;13.446;2023-09-18T08:02:31;5.43;;;5.13;;
10142;SDS011;5112;54.088;13.446;2023-09-18T08:12:36;6.40;;;5.70;;
10142;SDS011;5112;54.088;13.446;2023-09-18T08:22:37;5.63;;;5.13;;
10142;SDS011;5112;54.088;13.446;2023-09-18T08:32:41;5.30;;;4.90;;
10142;SDS011;5112;54.088;13.446;2023-09-18T08:42:46;5.50;;;5.10;;
10142;SDS011;5112;54.088;13.446;2023-09-18T08:52:50;5.73;;;5.30;;
10142;SDS011;5112;54.088;13.446;2023-09-18T09:02:52;5.53;;;5.03;;
10142;SDS011;5112;54.088;13.446;2023-09-18T09:12:55;5.63;;;5.13;;
10142;SDS011;5112;54.088;13.446;2023-09-18T09:23:01;5.40;;;5.00;;
10142;SDS011;5112;54.088;13.446;2023-09-18T09:33:05;5.70;;;5.20;;
10142;SDS011;5112;54.088;13.446;2023-09-18T09:43:08;5.20;;;4.83;;
10142;SDS011;5112;54.088;13.446;2023-09-18T09:53:12;5.03;;;4.53;;
10142;SDS011;5112;54.088;13.446;2023-09-18T10:03:15;5.50;;;5.00;;
10142;SDS011;5112;54.088;13.446;2023-09-18T10:13:20;5.27;;;4.87;;
10142;SDS011;5112;54.088;13.446;2023-09-18T10:23:32;4.77;;;4.37;;
10142;SDS011;5112;54.088;13.446;2023-09-18T10:33:42;5.03;;;4.73;;
10142;SDS011;5112;54.088;13.446;2023-09-18T10:43:44;4.87;;;4.40;;
10142;SDS011;5112;54.088;13.446;2023-09-18T10:53:48;5.40;;;4.50;;
10142;SDS011;5112;54.088;13.446;2023-09-18T11:03:50;4.70;;;4.40;;
10142;SDS011;5112;54.088;13.446;2023-09-18T11:13:54;5.30;;;4.70;;
10142;SDS011;5112;54.088;13.446;2023-09-18T11:23:57;5.10;;;4.60;;
10142;SDS011;5112;54.088;13.446;2023-09-18T11:34:03;4.60;;;4.30;;
10142;SDS011;5112;54.088;13.446;2023-09-18T11:44:31;5.27;;;4.87;;
10142;SDS011;5112;54.088;13.446;2023-09-18T11:54:36;4.50;;;4.20;;
10142;SDS011;5112;54.088;13.446;2023-09-18T12:04:40;5.60;;;5.10;;
10142;SDS011;5112;54.088;13.446;2023-09-18T12:14:43;5.13;;;4.63;;
10142;SDS011;5112;54.088;13.446;2023-09-18T12:24:45;5.27;;;4.87;;
10142;SDS011;5112;54.088;13.446;2023-09-18T12:34:48;4.70;;;4.33;;
10142;SDS011;5112;54.088;13.446;2023-09-18T12:44:50;5.47;;;5.07;;
10142;SDS011;5112;54.088;13.446;2023-09-18T12:54:53;4.53;;;4.23;;
10142;SDS011;5112;54.088;13.446;2023-09-18T13:04:56;5.03;;;4.63;;
10142;SDS011;5112;54.088;13.446;2023-09-18T13:15:00;4.70;;;4.40;;
10142;SDS011;5112;54.088;13.446;2023-09-18T13:25:05;4.40;;;4.10;;
10142;SDS011;5112;54.088;13.446;2023-09-18T13:35:09;4.80;;;4.40;;
10142;SDS011;5112;54.088;13.446;2023-09-18T13:45:11;5.67;;;4.07;;
10142;SDS011;5112;54.088;13.446;2023-09-18T13:55:17;4.10;;;3.80;;
10142;SDS011;5112;54.088;13.446;2023-09-18T14:05:19;4.03;;;3.70;;
10142;SDS011;5112;54.088;13.446;2023-09-18T14:15:22;4.50;;;4.10;;
10142;SDS011;5112;54.088;13.446;2023-09-18T14:25:24;4.03;;;3.73;;
10142;SDS011;5112;54.088;13.446;2023-09-18T14:35:27;3.97;;;3.67;;
10142;SDS011;5112;54.088;13.446;2023-09-18T14:45:29;4.33;;;3.87;;
10142;SDS011;5112;54.088;13.446;2023-09-18T14:55:32;4.60;;;3.70;;
10142;SDS011;5112;54.088;13.446;2023-09-18T15:05:35;4.37;;;4.00;;
10142;SDS011;5112;54.088;13.446;2023-09-18T15:15:39;4.80;;;4.50;;
10142;SDS011;5112;54.088;13.446;2023-09-18T15:25:41;4.83;;;4.40;;
10142;SDS011;5112;54.088;13.446;2023-09-18T15:35:45;5.90;;;4.83;;
10142;SDS011;5112;54.088;13.446;2023-09-18T15:45:46;6.30;;;5.80;;
10142;SDS011;5112;54.088;13.446;2023-09-18T15:55:49;5.87;;;5.37;;
10142;SDS011;5112;54.088;13.446;2023-09-18T16:05:51;5.80;;;5.30;;
10142;SDS011;5112;54.088;13.446;2023-09-18T16:15:55;5.60;;;5.10;;
10142;SDS011;5112;54.088;13.446;2023-09-18T16:25:58;5.53;;;5.03;;
10142;SDS011;5112;54.088;13.446;2023-09-18T16:36:01;5.90;;;5.20;;
10142;SDS011;5112;54.088;13.446;2023-09-18T16:46:04;5.77;;;5.30;;
10142;SDS011;5112;54.088;13.446;2023-09-18T16:56:07;5.57;;;5.10;;
10142;SDS011;5112;54.088;13.446;2023-09-18T17:06:08;5.60;;;5.20;;
10142;SDS011;5112;54.088;13.446;2023-09-18T17:16:11;6.57;;;5.97;;
10142;SDS011;5112;54.088;13.446;2023-09-18T17:26:13;5.73;;;5.23;;
10142;SDS011;5112;54.088;13.446;2023-09-18T17:36:16;6.23;;;5.40;;
10142;SDS011;5112;54.088;13.446;2023-09-18T17:46:18;5.83;;;5.23;;
10142;SDS011;5112;54.088;13.446;2023-09-18T17:56:22;5.67;;;5.00;;
10142;SDS011;5112;54.088;13.446;2023-09-18T18:06:23;6.07;;;5.40;;
10142;SDS011;5112;54.088;13.446;2023-09-18T18:16:26;6.20;;;5.57;;
10142;SDS011;5112;54.088;13.446;2023-09-18T18:26:28;6.33;;;5.30;;
10142;SDS011;5112;54.088;13.446;2023-09-18T18:36:33;6.20;;;5.37;;
10142;SDS011;5112;54.088;13.446;2023-09-18T18:46:38;6.73;;;5.23;;
10142;SDS011;5112;54.088;13.446;2023-09-18T18:56:41;5.23;;;4.73;;
10142;SDS011;5112;54.088;13.446;2023-09-18T19:06:43;5.30;;;4.90;;
10142;SDS011;5112;54.088;13.446;2023-09-18T19:16:46;5.33;;;4.90;;
10142;SDS011;5112;54.088;13.446;2023-09-18T19:26:49;5.33;;;4.87;;
10142;SDS011;5112;54.088;13.446;2023-09-18T19:36:52;4.87;;;4.43;;
10142;SDS011;5112;54.088;13.446;2023-09-18T19:46:54;5.10;;;4.57;;
10142;SDS011;5112;54.088;13.446;2023-09-18T19:56:57;4.40;;;4.00;;
10142;SDS011;5112;54.088;13.446;2023-09-18T20:06:59;4.70;;;4.30;;
10142;SDS011;5112;54.088;13.446;2023-09-18T20:17:05;5.00;;;4.60;;
10142;SDS011;5112;54.088;13.446;2023-09-18T20:27:07;4.97;;;4.40;;
10142;SDS011;5112;54.088;13.446;2023-09-18T20:37:10;7.83;;;4.90;;
10142;SDS011;5112;54.088;13.446;2023-09-18T20:47:13;6.50;;;4.43;;
10142;SDS011;5112;54.088;13.446;2023-09-18T20:57:16;5.30;;;4.67;;
10142;SDS011;5112;54.088;13.446;2023-09-18T21:07:17;6.67;;;4.63;;
10142;SDS011;5112;54.088;13.446;2023-09-18T21:17:21;4.60;;;4.20;;
10142;SDS011;5112;54.088;13.446;2023-09-18T21:27:22;5.43;;;4.90;;
10142;SDS011;5112;54.088;13.446;2023-09-18T21:37:26;4.80;;;4.30;;
10142;SDS011;5112;54.088;13.446;2023-09-18T21:47:28;5.82;;;4.30;;
10142;SDS011;5112;54.088;13.446;2023-09-18T21:57:33;4.57;;;3.57;;
10142;SDS011;5112;54.088;13.446;2023-09-18T22:07:35;4.07;;;3.57;;
10142;SDS011;5112;54.088;13.446;2023-09-18T22:17:38;4.10;;;3.80;;
10142;SDS011;5112;54.088;13.446;2023-09-18T22:27:40;5.73;;;4.27;;
10142;SDS011;5112;54.088;13.446;2023-09-18T22:37:44;5.77;;;3.80;;
10142;SDS011;5112;54.088;13.446;2023-09-18T22:58:27;4.80;;;3.93;;
10142;SDS011;5112;54.088;13.446;2023-09-18T23:08:28;6.28;;;4.03;;
10142;SDS011;5112;54.088;13.446;2023-09-18T23:18:32;7.50;;;4.33;;
10142;SDS011;5112;54.088;13.446;2023-09-18T23:28:40;6.40;;;3.23;;
10142;SDS011;5112;54.088;13.446;2023-09-18T23:38:46;4.77;;;3.43;;
10142;SDS011;5112;54.088;13.446;2023-09-18T23:48:48;3.90;;;3.57;;
10142;SDS011;5112;54.088;13.446;2023-09-18T23:58:51;5.30;;;3.77;;
